createdAt,value
2022-08-24T00:00:39.063Z,18.9
2022-08-24T00:02:45.421Z,18.9
2022-08-24T00:06:57.785Z,18.8
2022-08-24T00:09:06.799Z,18.7
2022-08-24T00:11:13.079Z,18.7
2022-08-24T00:14:23.835Z,18.7
2022-08-24T00:16:30.149Z,18.6
2022-08-24T00:18:36.395Z,18.7
2022-08-24T00:20:45.222Z,18.6
2022-08-24T00:22:51.674Z,18.6
2022-08-24T00:33:22.981Z,18.5
2022-08-24T00:35:29.241Z,18.5
2022-08-24T00:39:44.579Z,18.4
2022-08-24T00:46:03.285Z,18.3
2022-08-24T00:48:09.511Z,18.3
2022-08-24T00:50:15.748Z,18.3
2022-08-24T00:52:24.751Z,18.2
2022-08-24T00:54:31.011Z,18.4
2022-08-24T00:56:37.245Z,18.3
2022-08-24T00:58:43.542Z,18.3
2022-08-24T01:02:56.026Z,18.3
2022-08-24T01:05:02.299Z,18.2
2022-08-24T01:07:11.339Z,18.3
2022-08-24T01:09:17.605Z,18.3
2022-08-24T01:11:23.846Z,18.2
2022-08-24T01:13:49.341Z,18.2
2022-08-24T01:15:55.595Z,18.2
2022-08-24T01:18:02.006Z,18.2
2022-08-24T01:20:10.875Z,18.2
2022-08-24T01:22:17.123Z,18.2
2022-08-24T01:24:23.369Z,18.1
2022-08-24T01:26:29.654Z,18.1
2022-08-24T01:37:03.711Z,17.9
2022-08-24T01:39:09.978Z,17.9
2022-08-24T01:41:16.249Z,17.9
2022-08-24T01:43:22.495Z,17.9
2022-08-24T01:45:28.785Z,17.9
2022-08-24T01:47:35.046Z,17.8
2022-08-24T01:49:44.044Z,17.7
2022-08-24T01:51:50.335Z,17.8
2022-08-24T01:53:56.598Z,17.8
2022-08-24T01:56:02.888Z,17.7
2022-08-24T01:58:09.156Z,17.9
2022-08-24T02:00:15.430Z,17.8
2022-08-24T02:06:36.992Z,17.7
2022-08-24T02:11:54.019Z,17.7
2022-08-24T02:14:00.377Z,17.8
2022-08-24T02:16:06.692Z,17.6
2022-08-24T02:18:15.883Z,17.7
2022-08-24T02:20:21.896Z,17.6
2022-08-24T02:22:28.154Z,17.5
2022-08-24T02:24:34.467Z,17.5
2022-08-24T02:35:08.578Z,17.5
2022-08-24T02:37:14.868Z,17.5
2022-08-24T02:39:21.155Z,17.5
2022-08-24T02:41:27.427Z,17.5
2022-08-24T02:43:33.730Z,17.4
2022-08-24T02:45:40.008Z,17.5
2022-08-24T02:47:49.024Z,17.4
2022-08-24T02:49:55.339Z,17.4
2022-08-24T02:52:01.605Z,17.4
2022-08-24T02:54:07.871Z,17.4
2022-08-24T02:56:14.151Z,17.3
2022-08-24T03:04:42.025Z,17.3
2022-08-24T03:07:54.362Z,17.3
2022-08-24T03:10:00.608Z,17.3
2022-08-24T03:12:06.888Z,17.3
2022-08-24T03:14:13.168Z,17.2
2022-08-24T03:16:22.211Z,17.2
2022-08-24T03:20:34.825Z,17.3
2022-08-24T03:22:41.080Z,17.2
2022-08-24T03:24:47.361Z,17.2
2022-08-24T03:28:59.932Z,17.2
2022-08-24T03:31:09.037Z,17.2
2022-08-24T03:33:15.243Z,17.1
2022-08-24T03:35:21.516Z,17.1
2022-08-24T03:37:27.796Z,17.2
2022-08-24T03:39:34.098Z,17.2
2022-08-24T03:41:40.375Z,17.2
2022-08-24T03:43:46.879Z,17.1
2022-08-24T03:48:01.989Z,17.2
2022-08-24T03:50:08.302Z,17.2
2022-08-24T03:52:14.552Z,17
2022-08-24T03:54:20.845Z,17
2022-08-24T03:56:27.157Z,17
2022-08-24T04:00:42.465Z,17
2022-08-24T04:05:59.550Z,17.1
2022-08-24T04:10:12.103Z,17.1
2022-08-24T04:14:28.011Z,16.9
2022-08-24T04:16:33.775Z,16.9
2022-08-24T04:18:40.025Z,16.8
2022-08-24T04:20:46.350Z,16.9
2022-08-24T04:22:53.615Z,16.8
2022-08-24T04:24:58.882Z,16.9
2022-08-24T04:27:05.156Z,16.8
2022-08-24T04:29:14.225Z,16.8
2022-08-24T04:31:20.576Z,16.8
2022-08-24T04:33:26.815Z,16.9
2022-08-24T04:35:33.212Z,16.9
2022-08-24T04:37:39.498Z,16.9
2022-08-24T04:39:45.866Z,16.9
2022-08-24T04:41:52.060Z,16.9
2022-08-24T04:44:01.143Z,16.9
2022-08-24T04:46:07.497Z,16.9
2022-08-24T04:48:13.751Z,16.9
2022-08-24T04:50:20.028Z,17
2022-08-24T04:52:26.413Z,16.9
2022-08-24T04:54:32.690Z,17
2022-08-24T04:56:38.999Z,17
2022-08-24T04:58:48.059Z,17
2022-08-24T05:00:54.429Z,17
2022-08-24T05:05:26.435Z,17.1
2022-08-24T05:07:32.708Z,17.1
2022-08-24T05:09:39.014Z,17.1
2022-08-24T05:11:49.795Z,17.1
2022-08-24T05:13:54.368Z,17.2
2022-08-24T05:16:00.700Z,17.3
2022-08-24T05:18:06.946Z,17.3
2022-08-24T05:20:13.234Z,17.4
2022-08-24T05:22:19.499Z,17.5
2022-08-24T05:24:25.795Z,17.6
2022-08-24T05:26:34.856Z,17.7
2022-08-24T05:28:41.131Z,17.7
2022-08-24T05:34:59.993Z,18
2022-08-24T05:39:12.592Z,18.2
2022-08-24T05:41:21.646Z,18.3
2022-08-24T05:43:27.906Z,18.4
2022-08-24T05:45:34.176Z,18.5
2022-08-24T05:47:40.497Z,18.5
2022-08-24T05:51:53.038Z,18.7
2022-08-24T05:58:22.886Z,18.9
2022-08-24T06:00:20.934Z,19
2022-08-24T06:01:25.481Z,19.1
2022-08-24T06:03:31.722Z,19.2
2022-08-24T06:07:44.321Z,19.4
2022-08-24T06:09:53.372Z,19.5
2022-08-24T06:11:59.576Z,19.5
2022-08-24T06:14:07.118Z,19.7
2022-08-24T06:16:20.913Z,19.9
2022-08-24T06:18:18.506Z,19.9
2022-08-24T06:20:24.751Z,20
2022-08-24T06:22:30.993Z,20.1
2022-08-24T06:24:40.027Z,20.2
2022-08-24T06:26:50.078Z,20.3
2022-08-24T06:28:52.564Z,20.4
2022-08-24T06:30:58.872Z,20.5
2022-08-24T06:35:11.576Z,20.7
2022-08-24T06:39:26.610Z,21.7
2022-08-24T06:41:32.891Z,22.9
2022-08-24T06:43:39.147Z,24.9
2022-08-24T06:45:45.420Z,25.4
2022-08-24T06:47:51.638Z,24.1
2022-08-24T06:49:57.883Z,23.1
2022-08-24T06:52:04.107Z,22.5
2022-08-24T06:54:13.083Z,23
2022-08-24T06:56:19.309Z,23
2022-08-24T06:58:25.518Z,22.8
2022-08-24T06:59:30.026Z,22.7
2022-08-24T07:01:36.350Z,22.6
2022-08-24T07:03:42.438Z,22.6
2022-08-24T07:05:48.656Z,22.8
2022-08-24T07:07:57.628Z,22.8
2022-08-24T07:10:03.851Z,22.9
2022-08-24T07:12:10.050Z,23
2022-08-24T07:14:16.261Z,23
2022-08-24T07:16:22.554Z,23.1
2022-08-24T07:18:28.683Z,23.6
2022-08-24T07:20:34.881Z,23.5
2022-08-24T07:24:50.039Z,24.4
2022-08-24T07:29:02.426Z,26.2
2022-08-24T07:31:08.643Z,25.9
2022-08-24T07:37:40.751Z,29.8
2022-08-24T07:39:36.078Z,30.1
2022-08-24T07:41:56.203Z,30.9
2022-08-24T07:43:48.316Z,31.2
2022-08-24T07:45:54.431Z,30.8
2022-08-24T07:50:06.285Z,31.3
2022-08-24T07:52:14.904Z,31
2022-08-24T07:54:20.806Z,31.4
2022-08-24T07:56:26.718Z,31.9
2022-08-24T07:59:36.884Z,32.6
2022-08-24T08:01:42.832Z,32.2
2022-08-24T08:03:50.376Z,31.8
2022-08-24T08:05:57.076Z,31.7
2022-08-24T08:10:08.696Z,32.4
2022-08-24T08:12:14.432Z,32.7
2022-08-24T08:18:31.622Z,33.1
2022-08-24T08:20:40.082Z,33.7
2022-08-24T08:24:51.411Z,33.3
2022-08-24T08:26:57.071Z,32.4
2022-08-24T08:29:02.718Z,32.4
2022-08-24T08:31:08.451Z,32.8
2022-08-24T08:33:14.050Z,32.9
2022-08-24T08:37:27.967Z,33.7
2022-08-24T08:39:33.514Z,34
2022-08-24T08:41:39.480Z,34.3
2022-08-24T08:52:09.659Z,32.2
2022-08-24T08:56:34.270Z,32.7
2022-08-24T08:58:39.769Z,32.7
2022-08-24T09:00:45.295Z,32.6
2022-08-24T09:09:10.190Z,30.8
2022-08-24T09:11:17.198Z,31.5
2022-08-24T09:13:22.680Z,31.5
2022-08-24T09:15:28.333Z,31.2
2022-08-24T09:17:36.440Z,31.9
2022-08-24T09:19:41.936Z,31.8
2022-08-24T09:21:47.473Z,31.1
2022-08-24T09:23:52.983Z,31.8
2022-08-24T09:30:09.588Z,32.3
2022-08-24T09:32:18.210Z,31.5
2022-08-24T09:34:23.395Z,31.4
2022-08-24T09:36:28.928Z,32.1
2022-08-24T09:38:34.428Z,32.7
2022-08-24T09:40:39.965Z,32.5
2022-08-24T09:42:45.473Z,32.8
2022-08-24T09:44:51.003Z,32.5
2022-08-24T09:46:59.319Z,32.2
2022-08-24T09:49:04.788Z,32.2
2022-08-24T09:51:10.280Z,32
2022-08-24T09:54:19.903Z,32.4
2022-08-24T09:56:25.383Z,32
2022-08-24T09:58:30.887Z,31.4
2022-08-24T10:00:39.134Z,31.6
2022-08-24T10:02:44.627Z,31.9
2022-08-24T10:09:01.035Z,31.9
2022-08-24T10:11:06.523Z,31.9
2022-08-24T10:13:12.012Z,32.7
2022-08-24T10:15:20.246Z,33.1
2022-08-24T10:19:31.150Z,32.6
2022-08-24T10:21:36.586Z,32.4
2022-08-24T10:25:47.649Z,32.5
2022-08-24T10:27:52.913Z,32.5
2022-08-24T10:30:01.100Z,32.8
2022-08-24T10:32:06.393Z,33
2022-08-24T10:34:11.724Z,32.8
2022-08-24T10:36:17.121Z,32.7
2022-08-24T10:38:22.414Z,32.4
2022-08-24T10:40:27.948Z,32.3
2022-08-24T10:42:33.081Z,32.5
2022-08-24T10:44:41.142Z,31.6
2022-08-24T10:46:46.452Z,31.8
2022-08-24T10:48:51.848Z,32
2022-08-24T10:49:55.911Z,32.4
2022-08-24T10:52:01.296Z,32.7
2022-08-24T10:54:06.708Z,32.6
2022-08-24T10:56:12.099Z,32.8
2022-08-24T11:00:25.496Z,33.1
2022-08-24T11:02:30.912Z,32.2
2022-08-24T11:06:41.536Z,32.4
2022-08-24T11:08:46.893Z,32.5
2022-08-24T11:10:52.276Z,32.5
2022-08-24T11:13:00.244Z,32.7
2022-08-24T11:15:05.483Z,33.1
2022-08-24T11:17:10.774Z,33.4
2022-08-24T11:19:16.044Z,33.6
2022-08-24T11:21:21.309Z,33.7
2022-08-24T11:23:31.435Z,33.3
2022-08-24T11:25:31.801Z,33.2
2022-08-24T11:27:39.723Z,33.6
2022-08-24T11:29:44.955Z,34.1
2022-08-24T11:36:00.672Z,34.5
2022-08-24T11:42:18.969Z,33.7
2022-08-24T11:44:24.160Z,32.9
2022-08-24T11:46:29.412Z,32.3
2022-08-24T11:47:33.383Z,32.4
2022-08-24T11:49:38.601Z,32.7
2022-08-24T11:51:43.821Z,32.4
2022-08-24T11:53:49.173Z,32.3
2022-08-24T11:56:00.075Z,32.5
2022-08-24T11:58:02.839Z,32.2
2022-08-24T12:00:08.082Z,32.2
2022-08-24T12:02:13.631Z,32.5
2022-08-24T12:04:18.928Z,32.5
2022-08-24T12:06:24.355Z,32.4
2022-08-24T12:10:38.032Z,32.8
2022-08-24T12:12:43.496Z,32.8
2022-08-24T12:14:48.949Z,32.3
2022-08-24T12:16:54.464Z,32
2022-08-24T12:18:59.928Z,31.8
2022-08-24T12:21:06.472Z,31.5
2022-08-24T12:23:10.959Z,31.6
2022-08-24T12:25:19.266Z,31.2
2022-08-24T12:29:30.399Z,31.1
2022-08-24T12:31:36.067Z,31.6
2022-08-24T12:33:41.572Z,32.2
2022-08-24T12:35:47.184Z,32.7
2022-08-24T12:37:52.781Z,32
2022-08-24T12:40:01.214Z,32.3
2022-08-24T12:42:06.756Z,32.1
2022-08-24T12:44:12.385Z,31.8
2022-08-24T12:46:31.359Z,31.4
2022-08-24T12:48:36.909Z,31.3
2022-08-24T12:54:57.326Z,32.7
2022-08-24T12:57:02.991Z,33.3
2022-08-24T12:59:08.673Z,33.6
2022-08-24T13:03:19.978Z,34.2
2022-08-24T13:09:39.602Z,34.7
2022-08-24T13:11:45.204Z,35.2
2022-08-24T13:13:50.789Z,35.5
2022-08-24T13:15:56.438Z,35.7
2022-08-24T13:18:03.333Z,35.5
2022-08-24T13:20:07.500Z,36.2
2022-08-24T13:22:15.822Z,35.1
2022-08-24T13:24:21.254Z,35.1
2022-08-24T13:26:26.761Z,34.7
2022-08-24T13:28:32.258Z,34.2
2022-08-24T13:30:37.829Z,33.5
2022-08-24T13:32:43.264Z,33.4
2022-08-24T13:34:48.791Z,33.9
2022-08-24T13:36:57.058Z,33.8
2022-08-24T13:39:02.600Z,33.3
2022-08-24T13:41:08.111Z,33.1
2022-08-24T13:42:12.249Z,32.9
2022-08-24T13:44:17.783Z,32.9
2022-08-24T13:46:23.367Z,32.5
2022-08-24T13:48:28.948Z,32.1
2022-08-24T13:50:37.227Z,32.1
2022-08-24T13:52:42.863Z,32.1
2022-08-24T13:54:48.411Z,32.4
2022-08-24T13:56:54.017Z,33.7
2022-08-24T14:05:19.326Z,35
2022-08-24T14:09:30.446Z,37.1
2022-08-24T14:11:36.030Z,37.5
2022-08-24T14:13:41.632Z,37.8
2022-08-24T14:15:47.356Z,37.3
2022-08-24T14:17:55.138Z,37.3
2022-08-24T14:20:01.122Z,37.1
2022-08-24T14:22:06.656Z,37.1
2022-08-24T14:24:12.233Z,37.5
2022-08-24T14:26:21.694Z,39.1
2022-08-24T14:28:23.304Z,39.5
2022-08-24T14:30:28.829Z,38.1
2022-08-24T14:34:42.638Z,36.1
2022-08-24T14:36:48.148Z,35.2
2022-08-24T14:38:53.668Z,34
2022-08-24T14:39:57.848Z,34.4
2022-08-24T14:42:03.325Z,35.1
2022-08-24T14:44:08.860Z,36.3
2022-08-24T14:46:14.475Z,37.8
2022-08-24T14:48:22.672Z,38
2022-08-24T14:50:28.205Z,37.4
2022-08-24T14:52:33.728Z,37.8
2022-08-24T14:54:39.273Z,36.4
2022-08-24T14:56:44.822Z,37.3
2022-08-24T14:58:50.351Z,35.3
2022-08-24T15:03:04.228Z,32.7
2022-08-24T15:09:20.955Z,32.6
2022-08-24T15:11:26.545Z,34
2022-08-24T15:13:33.661Z,34.3
2022-08-24T15:15:39.341Z,33.8
2022-08-24T15:17:47.617Z,33.1
2022-08-24T15:19:53.231Z,33.2
2022-08-24T15:21:58.893Z,32.7
2022-08-24T15:24:09.303Z,32.9
2022-08-24T15:26:10.201Z,32.3
2022-08-24T15:32:29.952Z,34
2022-08-24T15:34:35.643Z,33.6
2022-08-24T15:36:41.318Z,33.1
2022-08-24T15:37:45.513Z,32.7
2022-08-24T15:39:51.270Z,32.3
2022-08-24T15:41:56.936Z,31.6
2022-08-24T15:44:02.633Z,32
2022-08-24T15:48:16.991Z,33.4
2022-08-24T15:52:28.234Z,36.5
2022-08-24T15:56:39.695Z,37.6
2022-08-24T15:58:45.419Z,37.5
2022-08-24T16:00:53.870Z,37.8
2022-08-24T16:02:59.588Z,38.1
2022-08-24T16:05:05.331Z,37.9
2022-08-24T16:07:11.007Z,35
2022-08-24T16:09:16.692Z,33.5
2022-08-24T16:11:22.416Z,32.9
2022-08-24T16:13:28.130Z,32.6
2022-08-24T16:15:37.077Z,32.6
2022-08-24T16:19:48.530Z,32.3
2022-08-24T16:21:54.572Z,32
2022-08-24T16:23:59.943Z,32.1
2022-08-24T16:26:05.688Z,32
2022-08-24T16:28:11.395Z,31.8
2022-08-24T16:30:19.843Z,31.8
2022-08-24T16:32:32.458Z,31.8
2022-08-24T16:34:31.316Z,32
2022-08-24T16:39:01.904Z,31.7
2022-08-24T16:41:07.649Z,31.9
2022-08-24T16:45:21.901Z,32
2022-08-24T16:47:27.655Z,31.9
2022-08-24T16:49:33.408Z,32
2022-08-24T16:51:39.216Z,32
2022-08-24T16:53:44.978Z,31.8
2022-08-24T16:55:50.766Z,31.7
2022-08-24T16:57:59.316Z,31.5
2022-08-24T17:02:10.887Z,31.3
2022-08-24T17:04:16.644Z,31.3
2022-08-24T17:06:22.438Z,31.1
2022-08-24T17:08:28.230Z,31
2022-08-24T17:10:37.825Z,30.6
2022-08-24T17:12:42.547Z,30.1
2022-08-24T17:14:48.380Z,30.1
2022-08-24T17:16:54.284Z,30
2022-08-24T17:19:00.025Z,29.9
2022-08-24T17:21:05.836Z,29.8
2022-08-24T17:23:11.743Z,29.7
2022-08-24T17:25:17.479Z,29.7
2022-08-24T17:29:31.843Z,29.6
2022-08-24T17:31:37.703Z,29.4
2022-08-24T17:34:47.818Z,29.4
2022-08-24T17:41:08.091Z,29
2022-08-24T17:43:13.938Z,28.9
2022-08-24T17:45:19.818Z,28.8
2022-08-24T17:49:31.558Z,28.6
2022-08-24T17:51:37.445Z,28.6
2022-08-24T17:53:43.317Z,28.4
2022-08-24T17:55:51.916Z,28.2
2022-08-24T17:57:57.818Z,28.2
2022-08-24T18:00:03.899Z,28.1
2022-08-24T18:02:09.622Z,28.1
2022-08-24T18:04:15.557Z,28.1
2022-08-24T18:06:21.439Z,28
2022-08-24T18:08:27.356Z,27.9
2022-08-24T18:14:47.793Z,27.5
2022-08-24T18:16:54.406Z,27.5
2022-08-24T18:18:59.754Z,27.4
2022-08-24T18:21:05.695Z,27.2
2022-08-24T18:23:12.603Z,27.2
2022-08-24T18:25:20.369Z,27.1
2022-08-24T18:27:26.404Z,27
2022-08-24T18:29:32.361Z,26.9
2022-08-24T18:30:36.810Z,26.8
2022-08-24T18:34:48.857Z,26.8
2022-08-24T18:39:06.986Z,26.5
2022-08-24T18:41:09.738Z,26.5
2022-08-24T18:43:15.821Z,26.4
2022-08-24T18:45:21.920Z,26.4
2022-08-24T18:47:27.955Z,26.3
2022-08-24T18:49:34.055Z,26.2
2022-08-24T18:51:40.134Z,26.1
2022-08-24T18:53:48.979Z,26
2022-08-24T18:55:55.097Z,26
2022-08-24T18:58:01.132Z,25.9
2022-08-24T19:00:07.236Z,25.8
2022-08-24T19:02:13.413Z,25.8
2022-08-24T19:04:19.428Z,25.8
2022-08-24T19:06:25.505Z,25.7
2022-08-24T19:10:40.479Z,25.6
2022-08-24T19:12:46.807Z,25.5
2022-08-24T19:14:52.636Z,25.4
2022-08-24T19:16:58.717Z,25.3
2022-08-24T19:23:19.759Z,25.1
2022-08-24T19:25:25.809Z,25.1
2022-08-24T19:28:36.301Z,25.1
2022-08-24T19:30:42.436Z,25.1
2022-08-24T19:32:48.484Z,25
2022-08-24T19:34:54.581Z,24.9
2022-08-24T19:39:09.573Z,24.7
2022-08-24T19:41:15.573Z,24.7
2022-08-24T19:45:27.729Z,24.6
2022-08-24T19:47:33.823Z,24.6
2022-08-24T19:49:39.904Z,24.5
2022-08-24T19:51:48.802Z,24.5
2022-08-24T19:53:54.893Z,24.4
2022-08-24T19:56:00.967Z,24.4
2022-08-24T19:58:07.064Z,24.4
2022-08-24T20:02:19.357Z,24.3
2022-08-24T20:04:25.391Z,24.3
2022-08-24T20:08:40.389Z,24.2
2022-08-24T20:14:58.726Z,24.1
2022-08-24T20:17:04.850Z,24
2022-08-24T20:19:10.959Z,24
2022-08-24T20:21:19.883Z,23.9
2022-08-24T20:25:32.131Z,23.8
2022-08-24T20:30:09.638Z,23.7
2022-08-24T20:32:09.850Z,23.7
2022-08-24T20:38:31.885Z,23.6
2022-08-24T20:40:37.163Z,23.5
2022-08-24T20:42:43.321Z,23.5
2022-08-24T20:46:55.664Z,23.4
2022-08-24T20:53:16.837Z,23.3
2022-08-24T21:01:41.465Z,23.1
2022-08-24T21:03:50.429Z,23
2022-08-24T21:05:56.582Z,23
2022-08-24T21:10:08.883Z,22.9
2022-08-24T21:14:21.204Z,22.8
2022-08-24T21:16:28.979Z,22.7
2022-08-24T21:18:37.799Z,22.7
2022-08-24T21:20:44.761Z,22.7
2022-08-24T21:22:50.175Z,22.6
2022-08-24T21:23:54.622Z,22.6
2022-08-24T21:26:00.806Z,22.6
2022-08-24T21:28:07.029Z,22.6
2022-08-24T21:32:22.136Z,22.5
2022-08-24T21:34:28.302Z,22.5
2022-08-24T21:36:34.473Z,22.4
2022-08-24T21:38:40.662Z,22.4
2022-08-24T21:40:46.821Z,22.3
2022-08-24T21:42:53.015Z,22.3
2022-08-24T21:44:59.227Z,22.2
2022-08-24T21:47:08.164Z,22.2
2022-08-24T21:49:14.362Z,22.2
2022-08-24T21:51:20.544Z,22.2
2022-08-24T21:53:28.669Z,22.1
2022-08-24T21:55:32.944Z,22.1
2022-08-24T21:57:39.135Z,22.1
2022-08-24T21:59:45.339Z,22
2022-08-24T22:01:54.420Z,22
2022-08-24T22:04:00.492Z,21.9
2022-08-24T22:06:07.875Z,21.9
2022-08-24T22:12:25.278Z,21.9
2022-08-24T22:14:31.483Z,21.8
2022-08-24T22:16:40.457Z,21.8
2022-08-24T22:18:46.773Z,21.8
2022-08-24T22:20:52.862Z,21.7
2022-08-24T22:21:57.328Z,21.8
2022-08-24T22:24:03.593Z,21.8
2022-08-24T22:26:09.753Z,21.7
2022-08-24T22:28:16.037Z,21.7
2022-08-24T22:30:24.949Z,21.5
2022-08-24T22:32:31.114Z,21.5
2022-08-24T22:34:37.372Z,21.5
2022-08-24T22:36:43.587Z,21.5
2022-08-24T22:38:49.742Z,21.4
2022-08-24T22:40:55.980Z,21.4
2022-08-24T22:43:02.267Z,21.4
2022-08-24T22:45:11.142Z,21.2
2022-08-24T22:47:17.367Z,21.3
2022-08-24T22:49:23.605Z,21.2
2022-08-24T22:51:29.801Z,21.2
2022-08-24T22:53:36.015Z,21.2
2022-08-24T22:55:42.584Z,21.1
2022-08-24T22:59:57.394Z,21
2022-08-24T23:02:03.706Z,21
2022-08-24T23:04:09.937Z,21
2022-08-24T23:06:16.071Z,21
2022-08-24T23:08:22.319Z,20.9
2022-08-24T23:10:28.532Z,20.8
2022-08-24T23:12:34.740Z,20.8
2022-08-24T23:14:43.705Z,20.8
2022-08-24T23:16:49.967Z,20.8
2022-08-24T23:18:56.177Z,20.8
2022-08-24T23:22:06.903Z,20.7
2022-08-24T23:24:13.138Z,20.7
2022-08-24T23:26:19.345Z,20.6
2022-08-24T23:28:28.310Z,20.5
2022-08-24T23:34:46.969Z,20.5
2022-08-24T23:36:53.221Z,20.5
2022-08-24T23:38:59.479Z,20.5
2022-08-24T23:41:05.687Z,20.4
2022-08-24T23:45:20.930Z,20.3
2022-08-24T23:47:27.162Z,20.3
2022-08-24T23:51:39.623Z,20.2
2022-08-24T23:55:52.094Z,20.1
2022-08-24T23:58:01.167Z,20.1
